Albany, NY (12205)

11:40 AM EDT on May 23, 2017 (GMT -0400)
South Colonie - Cook Park Area | | Change Station

Elev 318 ft 42.71 °N, 73.84 °W | Updated 44 minutes ago

Overcast
Overcast
65.3 °F
Feels Like 65.3 °F
N
0.0
Wind Variable Wind from SSE

Today
High -- | Low -- °F
--% Chance of Precip.
Yesterday
High -- | Low -- °F
Precip. -- in
Pressure 29.96 in
Visibility 10.0 miles
Clouds Few 18000 ft
Mostly Cloudy 22000 ft
Overcast 26000 ft
Dew Point 47 °F
Humidity 52%
Rainfall 0.00 in
Snow Depth Not available.
5:25 AM 8:19 PM
Waning Crescent, 7% visible
METAR KALB 231451Z 00000KT 10SM FEW180 BKN220 OVC260 17/08 A2995 RMK AO2 SLP143 T01670083 55005
Pressure 29.96 in
Visibility 10.0 miles
Clouds Few 18000 ft
Mostly Cloudy 22000 ft
Overcast 26000 ft
Dew Point 47 °F
Humidity 52%
Rainfall 0.00 in
Snow Depth Not available.
5:25 AM 8:19 PM
Waning Crescent, 7% visible
METAR KALB 231451Z 00000KT 10SM FEW180 BKN220 OVC260 17/08 A2995 RMK AO2 SLP143 T01670083 55005

Get Severe Weather Alerts

Thanks for signing up!

Be on the lookout for a verification email in your inbox.

You'll start receiving the daily forecast at 6 AM.

×

10-Day Weather Forecast

Almanac

Astronomy

May. 23, 2017 Rise Set
Actual Time
Civil Twilight
Nautical Twilight
Astronomical Twilight
Moon
Length of Visible Light
Length of Day
Tomorrow will be .
, % of the Moon is Illuminated

Today's Extremes

State Highs State Lows

Community

WunderPhotos

Category 6

Welcome to Category 6. This is the collective home for Weather Underground's featured writeups by Dr. Jeff Masters (right), Bob Henson (left), Chris Burt, and other regular contributors.

Nearby

Air Quality

  Air Quality AQ Index Pollutant
Not available.

Snow Depth

Station Depth Elevation

Earthquake Activity

City Distance Mag. Time & Date
Minimum magnitude displayed is 2.5.

Coastal Water Temperatures

Place Temperature

Stations

Nearby Weather Stations

Station Location Temp. Windchill Dew Point Humidity Wind Precip. Elev Updated Type
                   

Watches & Warnings

There are currently no watches in effect.